Weather reports worldwide

Advertisment
Hohenpeißenberg, Germany (10962): temperature & dewpoint: 10.01.2018 20:00:00 - 16.01.2018 20:00:00 (CET)Hohenpeißenberg, Germany (10962): temperature 5cm & temperature -5cm: 10.01.2018 20:00:00 - 16.01.2018 20:00:00 (CET)Hohenpeißenberg, Germany (10962): temperature -20cm & temperature -100cm: 10.01.2018 20:00:00 - 16.01.2018 20:00:00 (CET)Hohenpeißenberg, Germany (10962): wind speed & gusts: 10.01.2018 20:00:00 - 16.01.2018 20:00:00 (CET)Hohenpeißenberg, Germany (10962): wind direction: 10.01.2018 20:00:00 - 16.01.2018 20:00:00 (CET)Hohenpeißenberg, Germany (10962): visibility: 10.01.2018 20:00:00 - 16.01.2018 20:00:00 (CET)Hohenpeißenberg, Germany (10962): sunshine duration: 10.01.2018 20:00:00 - 16.01.2018 20:00:00 (CET)Hohenpeißenberg, Germany (10962): precipitation: 10.01.2018 20:00:00 - 16.01.2018 20:00:00 (CET)
Date & Time tt [°C] td [°C] tt 5cm [°C] tt -5cm [°C] tt -20cm [°C] tt -100cm [°C] ff [km/h] ff [kn] fx [km/h] fx [kn] dd vv [km] sd [min] rr [mm]
16.01.2018 20:00:00 -0,3 -0,6 0,0 0,8 1,4 4,0 37 20 58 31 WSW 0,1 0 1,2
16.01.2018 19:00:00 1,2 0,9 1,2 0,9 1,5 4,0 25 13 69 37 WSW 10 0 0,0
16.01.2018 18:00:00 0,2 0,0 0,1 1,0 1,5 4,0 27 15 50 27 WSW 0,1 0 0,1
16.01.2018 17:00:00 0,1 -0,1 0,1 1,5 1,5 4,0 24 13 64 35 W 0,1 0 2,2
16.01.2018 16:00:00 1,8 1,2 1,6 2,1 1,4 4,0 29 15 96 52 NW 0,2 0 1,6
16.01.2018 15:00:00 2,4 2,0 2,4 2,1 1,3 4,0 42 23 83 45 WSW 0,9 0 1,2
16.01.2018 14:00:00 2,7 1,8 2,6 2,2 1,2 4,0 50 27 79 43 WSW 4,0 0 0,3
16.01.2018 13:00:00 2,8 1,7 3,0 1,9 1,1 4,0 48 26 81 44 WSW 6 0 0,3
16.01.2018 12:00:00 2,8 2,0 2,8 1,5 1,0 4,0 42 23 92 50 WSW 7 1 0,7
16.01.2018 11:00:00 3,2 1,4 2,6 1,4 0,9 4,0 50 27 84 46 SW 10 29 0,1
16.01.2018 10:00:00 3,3 0,9 2,6 0,6 0,9 4,0 61 33 93 50 WSW 14 2 0,1
16.01.2018 09:00:00 4,7 -0,1 4,2 0,3 0,9 4,0 52 28 94 51 SW 40 0 0,0
16.01.2018 08:00:00 2,9 0,3 1,8 0,3 0,9 4,0 32 18 68 37 SW 15 0 0,0
16.01.2018 07:00:00 2,1 0,6 1,2 0,3 0,9 4,1 40 22 71 38 SW 82 0 0,0
16.01.2018 06:00:00 1,7 0,3 0,8 0,3 0,9 4,1 41 22 64 35 SW 82 0 0,0
16.01.2018 05:00:00 1,8 0,5 1,2 0,3 0,9 4,1 31 17 46 25 SW 82 0 0,0
16.01.2018 04:00:00 1,5 0,5 1,0 0,3 0,9 4,1 29 16 44 24 SW 82 0 0,3
16.01.2018 03:00:00 2,2 -0,7 1,3 0,3 0,9 4,1 28 15 53 29 SW 32 0 0,0
16.01.2018 02:00:00 2,6 -2,4 1,7 0,3 0,9 4,1 39 21 57 31 SW 45 0 0,0
16.01.2018 01:00:00 2,1 -6,0 1,4 0,3 0,9 4,1 21 11 31 17 SSW 82 0 0,0
16.01.2018 00:00:00 1,7 -7,2 1,2 0,3 0,9 4,1 21 12 28 15 SSE 82 0 0,0
15.01.2018 23:00:00 1,7 -6,1 1,0 0,3 0,9 4,1 11 6 29 16 SSW 82 0 0,0
15.01.2018 22:00:00 0,3 -4,7 -0,1 0,3 0,9 4,1 22 12 33 18 SW 82 0 0,0
15.01.2018 21:00:00 0,7 -6,3 0,2 0,3 0,9 4,1 16 9 26 14 WNW 82 0 0,0
15.01.2018 20:00:00 2,7 -9,6 1,4 0,3 0,9 4,1 13 7 29 16 SE 82 0 0,0
15.01.2018 19:00:00 2,9 -8,8 1,7 0,3 0,9 4,1 17 9 27 14 SE 60 0 0,0
15.01.2018 18:00:00 2,3 -7,2 1,2 0,3 0,9 4,1 23 12 29 15 SE 60 0 0,0
15.01.2018 17:00:00 2,1 -6,6 0,3 0,5 0,9 4,1 15 8 18 10 SSE 60 6 0,0
15.01.2018 16:00:00 3,6 -5,3 2,3 0,7 0,8 4,1 6 4 16 8 SW 60 0 0,0
15.01.2018 15:00:00 4,7 -5,2 4,0 0,5 0,8 4,1 8 4 26 14 W 60 25 0,0
15.01.2018 14:00:00 6,7 -4,2 7,7 0,0 0,8 4,1 13 7 31 17 SW 60 60 0,0
15.01.2018 13:00:00 6,3 -3,8 7,2 0,0 0,8 4,1 16 9 32 17 SSW 60 60 0,0
15.01.2018 12:00:00 4,7 -4,9 5,5 0,0 0,8 4,1 21 11 32 17 SW 60 60 0,0
15.01.2018 11:00:00 1,6 -6,3 3,3 -0,1 0,9 4,1 19 11 24 13 SSW 60 60 0,0
15.01.2018 10:00:00 -0,3 -8,3 0,4 -0,1 0,9 4,1 16 8 22 12 SSW 60 53 0,0
15.01.2018 09:00:00 -1,7 -6,8 -2,2 -0,1 0,9 4,1 11 6 15 8 SW 40 22 0,0
15.01.2018 08:00:00 -1,9 -6,6 -3,9 0,0 0,9 4,1 14 7 17 9 SW 40 0 0,0
15.01.2018 07:00:00 -2,8 -5,7 -3,8 0,0 0,9 4,2 11 6 14 8 SSW 30 0 0,0
15.01.2018 06:00:00 -3,2 -5,1 -4,4 0,1 1,0 4,2 11 6 13 7 S 22 0 0,0
15.01.2018 05:00:00 -3,7 -4,4 -4,4 0,1 1,0 4,2 11 6 14 8 SSE 8 0 0,0
15.01.2018 04:00:00 -3,9 -4,6 -4,6 0,2 1,0 4,2 11 6 12 7 S 3,0 0 0,0
15.01.2018 03:00:00 -3,7 -4,5 -4,0 0,2 1,0 4,2 8 4 13 7 SSW 4,0 0 0,0
15.01.2018 02:00:00 -3,1 -3,7 -3,2 0,2 1,0 4,2 7 4 13 7 SW 5 0 0,0
15.01.2018 01:00:00 -3,0 -4,0 -2,8 0,3 1,0 4,2 5 3 9 5 SW 4,0 0 0,0
15.01.2018 00:00:00 -2,8 -3,6 -2,6 0,3 1,1 4,2 3 2 7 4 SSW 4,0 0 0,0
14.01.2018 23:00:00 -2,8 -3,4 -2,5 0,3 1,1 4,2 4 2 5 3 S 0,7 0 0,0
14.01.2018 22:00:00 -2,9 -3,7 -2,6 0,3 1,1 4,2 2 1 5 3 W 2,0 0 0,0
14.01.2018 21:00:00 -2,8 -3,6 -2,4 0,3 1,1 4,2 4 2 6 3 S 7 0 0,0
14.01.2018 20:00:00 -3,1 -4,1 -2,6 0,3 1,1 4,2 4 2 11 6 NE 6 0 0,0
14.01.2018 19:00:00 -3,0 -3,8 -2,6 0,4 1,1 4,2 9 5 13 7 NNE 15 0 0,0
14.01.2018 18:00:00 -3,1 -3,9 -2,6 0,4 1,1 4,2 8 4 13 7 NNE 14 0 0,0
14.01.2018 17:00:00 -2,9 -3,8 -2,5 0,4 1,1 4,2 10 5 14 8 NNE 16 0 0,0
14.01.2018 16:00:00 -3,0 -4,2 -2,2 0,4 1,1 4,2 10 5 13 7 NNE 13 0 0,0
14.01.2018 15:00:00 -2,7 -3,7 -1,8 0,4 1,1 4,2 9 5 14 8 NE 25 0 0,0
14.01.2018 14:00:00 -2,7 -4,0 -1,6 0,4 1,1 4,2 8 4 12 6 ENE 17 0 0,0
14.01.2018 13:00:00 -2,2 -3,9 -1,1 0,4 1,1 4,2 5 3 9 5 S 12 0 0,0
14.01.2018 12:00:00 -3,0 -4,4 -2,1 0,3 1,1 4,2 5 3 11 6 SSE 5 0 0,0
14.01.2018 11:00:00 -3,1 -4,1 -2,4 0,3 1,2 4,2 5 3 10 6 SE 0,8 0 0,0
14.01.2018 10:00:00 -3,4 -4,2 -2,7 0,3 1,2 4,2 5 3 9 5 E 0,8 0 0,0
14.01.2018 09:00:00 -3,4 -4,0 -2,9 0,3 1,2 4,2 6 3 12 7 ENE 0,7 0 0,0
14.01.2018 08:00:00 -3,4 -4,0 -3,0 0,4 1,2 4,2 8 4 12 6 NNE 0,7 0 0,0
14.01.2018 07:00:00 -3,4 -4,1 -2,9 0,4 1,2 4,2 10 5 13 7 NE 0,1 0 0,0
14.01.2018 06:00:00 -3,2 -4,1 -2,8 0,4 1,3 4,2 6 3 13 7 ENE 0,8 0 0,0
14.01.2018 05:00:00 -3,3 -4,0 -2,8 0,4 1,3 4,2 8 4 13 7 ENE 1,5 0 0,0
14.01.2018 04:00:00 -3,1 -3,6 -2,7 0,5 1,3 4,2 6 3 14 8 E 0,1 0 0,0
14.01.2018 03:00:00 -3,0 -3,5 -2,6 0,5 1,3 4,2 6 4 14 7 ENE 0,1 0 0,0
14.01.2018 02:00:00 -2,8 -3,4 -2,5 0,5 1,3 4,3 6 4 12 7 ENE 0,1 0 0,0
14.01.2018 01:00:00 -2,6 -3,0 -2,3 0,5 1,4 4,3 6 3 13 7 ENE 0,1 0 0,0
14.01.2018 00:00:00 -2,5 -3,0 -2,1 0,6 1,4 4,3 6 3 13 7 ENE 0,1 0 0,0
13.01.2018 23:00:00 -2,2 -2,5 -1,9 0,6 1,4 4,3 5 3 13 7 E 0,1 0 0,0
13.01.2018 22:00:00 -2,3 -2,9 -1,9 0,6 1,4 4,3 10 6 20 11 ENE 1,5 0 0,0
13.01.2018 21:00:00 -2,0 -2,4 -1,7 0,6 1,4 4,3 9 5 17 9 ENE 0,1 0 0,0
13.01.2018 20:00:00 -1,9 -2,4 -1,6 0,6 1,5 4,3 9 5 16 8 ENE 0,8 0 0,0
13.01.2018 19:00:00 -1,7 -2,2 -1,4 0,7 1,5 4,3 9 5 13 7 NE 6 0 0,0
13.01.2018 18:00:00 -1,8 -2,4 -1,4 0,7 1,5 4,3 7 4 13 7 NE 10 0 0,0
13.01.2018 17:00:00 -1,7 -2,3 -1,3 1,0 1,5 4,3 8 5 13 7 ENE 12 0 0,0
13.01.2018 16:00:00 -1,6 -2,4 -1,1 1,2 1,4 4,3 6 4 11 6 NE 18 0 0,0
13.01.2018 15:00:00 -1,5 -2,6 -0,4 1,2 1,4 4,3 5 3 15 8 ENE 18 0 0,0
13.01.2018 14:00:00 -1,5 -2,3 -0,5 1,0 1,4 4,3 6 4 13 7 NE 18 0 0,0
13.01.2018 13:00:00 -1,8 -2,8 -0,5 0,6 1,4 4,3 8 5 17 9 NE 17 0 0,0
13.01.2018 12:00:00 -2,2 -3,5 -1,0 0,5 1,4 4,3 8 5 17 9 E 15 0 0,0
13.01.2018 11:00:00 -2,0 -2,7 -1,0 0,5 1,4 4,3 8 5 13 7 ENE 22 0 0,0
13.01.2018 10:00:00 -2,4 -3,1 -1,8 0,5 1,4 4,3 6 3 16 8 ESE 16 0 0,0
13.01.2018 09:00:00 -2,4 -2,9 -2,1 0,5 1,4 4,3 6 4 14 8 ESE 11 0 0,0
13.01.2018 08:00:00 -2,5 -3,0 -2,2 0,5 1,5 4,3 4 2 14 8 E 15 0 0,0
13.01.2018 07:00:00 -2,5 -3,2 -2,1 0,5 1,5 4,3 7 4 17 9 ENE 0,6 0 0,0
13.01.2018 06:00:00 -2,2 -2,7 -1,9 0,5 1,5 4,3 8 5 15 8 ENE 0,9 0 0,0
13.01.2018 05:00:00 -2,0 -2,4 -1,8 0,6 1,6 4,3 8 4 14 8 ENE 0,6 0 0,0
13.01.2018 04:00:00 -1,9 -2,3 -1,7 0,6 1,6 4,3 10 6 18 10 ENE 0,1 0 0,0
13.01.2018 03:00:00 -1,8 -2,2 -1,5 0,6 1,6 4,3 9 5 21 11 ENE 0,1 0 0,0
13.01.2018 02:00:00 -1,9 -2,3 -1,6 0,7 1,7 4,3 14 8 23 12 ENE 0,1 0 0,0
13.01.2018 01:00:00 -1,8 -2,2 -1,5 0,7 1,7 4,3 11 6 18 10 ENE 0,1 0 0,0
13.01.2018 00:00:00 -1,8 -2,2 -1,5 0,7 1,7 4,3 10 6 18 10 ENE 0,1 0 0,0
12.01.2018 23:00:00 -1,5 -1,8 -1,3 0,8 1,8 4,3 13 7 22 12 ENE 0,1 0 0,0
12.01.2018 22:00:00 -1,5 -1,8 -1,2 0,8 1,8 4,3 11 6 24 13 ENE 0,2 0 0,0
12.01.2018 21:00:00 -1,3 -1,7 -1,1 0,9 1,9 4,3 17 9 27 15 ENE 0,4 0 0,0
12.01.2018 20:00:00 -1,3 -1,7 -1,1 0,9 2,0 4,3 14 7 23 12 ENE 0,2 0 0,0
12.01.2018 19:00:00 -1,4 -1,9 -1,2 1,0 2,0 4,3 17 9 28 15 ENE 3,0 0 0,0
12.01.2018 18:00:00 -1,1 -1,6 -1,1 1,2 2,1 4,3 11 6 18 10 ENE 2,0 0 0,0
12.01.2018 17:00:00 -0,8 -1,1 -0,8 1,7 2,1 4,3 7 4 18 10 E 1,5 0 0,0
12.01.2018 16:00:00 -0,7 -1,0 0,0 2,2 2,0 4,3 9 5 19 11 ENE 0,9 0 0,0
12.01.2018 15:00:00 -0,8 -1,1 0,1 2,4 1,9 4,3 9 5 21 11 ENE 0,8 2 0,0
12.01.2018 14:00:00 -1,0 -1,4 0,1 1,9 1,9 4,3 8 5 14 8 ENE 0,1 0 0,0
12.01.2018 13:00:00 -1,0 -1,3 -0,2 1,8 1,8 4,3 10 5 16 9 ENE 0,1 0 0,0
12.01.2018 12:00:00 -0,9 -1,2 -0,1 1,6 1,8 4,3 9 5 14 8 ENE 0,1 0 0,0
12.01.2018 11:00:00 -0,9 -1,0 -0,2 1,1 1,8 4,3 9 5 16 8 ENE 0,1 0 0,0
12.01.2018 10:00:00 -1,1 -1,3 -0,7 0,9 1,8 4,3 9 5 13 7 ENE 0,1 0 0,0
12.01.2018 09:00:00 -1,2 -1,4 -0,8 0,8 1,8 4,3 9 5 14 8 NE 0,1 0 0,0
12.01.2018 08:00:00 -1,1 -1,1 -0,8 0,8 1,9 4,3 7 4 16 9 NE 0,1 0 0,0
12.01.2018 07:00:00 -1,0 -1,3 -0,8 0,9 1,9 4,3 9 5 13 7 NNE 0,1 0 0,0
12.01.2018 06:00:00 -0,9 -1,0 -0,7 0,9 2,0 4,3 8 5 12 7 NE 0,1 0 0,0
12.01.2018 05:00:00 -0,9 -1,1 -0,7 1,0 2,0 4,3 9 5 14 8 NE 0,1 0 0,0
12.01.2018 04:00:00 -0,7 -0,8 -0,5 1,1 2,0 4,3 7 4 13 7 ENE 0,1 0 0,0
12.01.2018 03:00:00 -0,6 -0,8 -0,2 1,1 2,1 4,3 10 5 14 8 NNE 0,1 0 0,0
12.01.2018 02:00:00 -0,5 -0,7 -0,3 1,2 2,1 4,3 10 6 14 8 NNE 0,1 0 0,0
12.01.2018 01:00:00 -0,4 -0,7 -0,3 1,3 2,2 4,3 9 5 14 8 NE 0,1 0 0,0
12.01.2018 00:00:00 -0,4 -0,6 -0,3 1,4 2,2 4,3 11 6 15 8 ENE 0,1 0 0,0
11.01.2018 23:00:00 -0,1 -0,3 0,0 1,5 2,3 4,3 10 5 16 8 NNE 0,1 0 0,0
11.01.2018 22:00:00 -0,1 -0,3 0,1 1,6 2,3 4,3 8 5 11 6 NNE 0,1 0 0,0
11.01.2018 21:00:00 0,0 -0,1 0,2 1,7 2,4 4,3 6 3 11 6 E 0,1 0 0,0
11.01.2018 20:00:00 0,0 -0,6 0,1 1,8 2,5 4,3 6 3 10 5 NE 8 0 0,0
11.01.2018 19:00:00 1,2 -0,5 0,4 2,1 2,5 4,3 3 2 6 3 ESE 13 0 0,0
11.01.2018 18:00:00 1,2 -0,6 1,0 2,5 2,5 4,4 6 3 8 4 E 12 0 0,0
11.01.2018 17:00:00 1,3 -0,8 1,1 2,8 2,4 4,3 0 0 6 3 N 18 0 0,0
11.01.2018 16:00:00 2,2 -0,6 2,2 3,2 2,2 4,3 3 1 5 3 NNW 20 0 0,0
11.01.2018 15:00:00 2,4 -1,1 2,8 3,2 2,1 4,3 2 1 5 3 NE 25 0 0,0
11.01.2018 14:00:00 2,8 -1,2 3,2 3,0 1,9 4,3 4 2 6 4 SW 25 0 0,0
11.01.2018 13:00:00 3,0 -1,3 3,7 2,3 1,8 4,3 4 2 10 6 S 20 3 0,0
11.01.2018 12:00:00 2,2 -1,6 3,0 1,1 1,8 4,3 5 3 6 4 NE 25 1 0,0
11.01.2018 11:00:00 2,4 -2,9 2,1 0,7 1,8 4,3 4 2 5 3 E 25 2 0,0
11.01.2018 10:00:00 2,6 0,0 1,9 0,7 1,8 4,3 0 0 9 5 N 18 0 0,0
11.01.2018 09:00:00 2,2 -1,9 1,1 0,7 1,9 4,3 4 2 7 4 NNW 18 0 0,0
11.01.2018 08:00:00 2,2 -1,5 1,3 0,7 1,9 4,3 6 3 9 5 WNW 20 0 0,0
11.01.2018 07:00:00 2,3 0,7 1,2 0,7 2,0 4,3 4 2 5 3 WNW 40 0 0,0
11.01.2018 06:00:00 2,1 0,5 0,2 0,7 2,0 4,3 0 0 9 5 N 30 0 0,0
11.01.2018 05:00:00 1,6 -1,8 0,8 0,7 2,1 4,3 7 4 11 6 W 30 0 0,0
11.01.2018 04:00:00 1,7 0,1 -0,4 0,8 2,1 4,3 9 5 14 7 NW 40 0 0,0
11.01.2018 03:00:00 1,8 -0,6 0,6 0,8 2,2 4,3 11 6 21 11 W 30 0 0,0
11.01.2018 02:00:00 1,8 -2,9 0,9 0,9 2,3 4,3 16 9 21 12 W 30 0 0,0
11.01.2018 01:00:00 2,0 -1,8 0,9 1,0 2,4 4,3 16 8 21 12 WSW 30 0 0,0
11.01.2018 00:00:00 1,9 -1,0 0,6 1,1 2,5 4,3 14 8 21 11 W 30 0 0,0
10.01.2018 23:00:00 2,5 -2,0 1,0 1,2 2,6 4,3 13 7 20 11 WSW 30 0 0,0
10.01.2018 22:00:00 2,5 -1,0 0,4 1,3 2,8 4,3 9 5 14 8 SW 30 0 0,0
10.01.2018 21:00:00 1,9 -0,6 0,0 1,4 2,9 4,3 8 4 10 5 S 30 0 0,0
10.01.2018 20:00:00 3,4 0,7 0,8 1,7 3,1 4,3 6 3 7 4 SE 30 0 0,0

tt = temperature
td = dewpoint
tt 5cm = temperature 5cm
tt -5cm = temperature -5cm
tt -20cm = temperature -20cm
tt -100cm = temperature -100cm
ff = wind speed
fx = gusts
dd = wind direction
vv = visibility
sd = sunshine duration
rr = precipitation

Next stations